M/V Koray — 9HA3270 — position and weather

sailwx.info

Track history (hours):
 
Tides and Currents Weather Stations Pressure Air Temp Water Temp Dewpoint Dewpoint Depression Visibility Wind Speed Wind Dir Waves Ship Positions

M/V Koray

Last reported at 2017-Oct-21 17:12 UTC. Time now 2017-Nov-20 17:41 UTC.
Position N 40°48' E 017°56'.
Warning: this ship's position is 30 days out of date.

Length 89 m; draft 6.6 m.

Type: Ship. MMSI: 229363000.

Date/timePositionNaut miles runAvg speedWind from/ knotsBaromVisibWave heightAir tempDewpointWater temp
2017-Oct-21 17:12N 40°48' E 017°56'4 8.3
2017-Oct-21 16:40N 40°46' E 018°01'348 7.1
2017-Oct-19 15:22N 36°56' E 023°37'4 8.4
2017-Oct-19 14:54N 36°60' E 023°39'13 8.6
2017-Oct-19 13:25N 37°11' E 023°48'329 8.4
2017-Oct-17 22:26N 40°57' E 028°56'1 2.1
2017-Oct-17 22:00N 40°57' E 028°55'  
2017-Oct-15 15:07N 40°57' E 028°57'1 6.5
2017-Oct-15 14:59N 40°56' E 028°58'5 5.0
2017-Oct-15 14:00N 40°51' E 028°60'  
Track history (hours):
 
Tides and Currents Weather Stations Pressure Air Temp Water Temp Dewpoint Dewpoint Depression Visibility Wind Speed Wind Dir Waves Ship Positions

M/V Koray

Last reported at 2017-Oct-21 17:12 UTC. Time now 2017-Nov-20 17:41 UTC.
Position N 40°48' E 017°56'.
Warning: this ship's position is 30 days out of date.

Length 89 m; draft 6.6 m.

Type: Ship. MMSI: 229363000.

Date/timePositionNaut miles runAvg speedWind from/ knotsBaromVisibWave heightAir tempDewpointWater temp
2017-Oct-21 17:12N 40°48' E 017°56'4 8.3
2017-Oct-21 16:40N 40°46' E 018°01'348 7.1
2017-Oct-19 15:22N 36°56' E 023°37'4 8.4
2017-Oct-19 14:54N 36°60' E 023°39'13 8.6
2017-Oct-19 13:25N 37°11' E 023°48'329 8.4
2017-Oct-17 22:26N 40°57' E 028°56'1 2.1
2017-Oct-17 22:00N 40°57' E 028°55'  
2017-Oct-15 15:07N 40°57' E 028°57'1 6.5
2017-Oct-15 14:59N 40°56' E 028°58'5 5.0
2017-Oct-15 14:00N 40°51' E 028°60'  

Dump ship's entire track history